Time;durP1;ratioP1;P1;durP2;ratioP2;P2;SDS_P1;SDS_P2;PMS_P1;PMS_P2;Temp;Humidity;BMP_temperature;BMP_pressure;BME280_temperature;BME280_humidity;BME280_pressure;Samples;Min_cycle;Max_cycle;Signal;HPM_P1;HPM_P2
2022/01/20 00:01:59;;;;;;;6.05;2.92;;;;;;;;;;5077764;28;20102;-77
2022/01/20 00:04:39;;;;;;;6.40;2.78;;;;;;;;;;5066876;28;20113;-78
2022/01/20 00:07:28;;;;;;;5.85;2.75;;;;;;;;;;5033182;28;20056;-77
2022/01/20 00:26:51;;;;;;;5.82;2.13;;;;;;;;;;5072606;28;20047;-78
2022/01/20 00:29:27;;;;;;;5.60;3.08;;;;;;;;;;5074223;28;20431;-77
2022/01/20 00:37:30;;;;;;;4.33;2.20;;;;;;;;;;5058778;28;20048;-77
2022/01/20 00:40:01;;;;;;;5.10;2.55;;;;;;;;;;5079488;28;20040;-78
2022/01/20 00:42:32;;;;;;;5.13;2.40;;;;;;;;;;5072936;28;20048;-77
2022/01/20 00:45:01;;;;;;;6.43;2.42;;;;;;;;;;5067921;28;20054;-77
2022/01/20 00:47:30;;;;;;;6.22;2.50;;;;;;;;;;5070402;28;20097;-77
2022/01/20 00:50:00;;;;;;;4.33;1.83;;;;;;;;;;5052568;28;20447;-77
2022/01/20 00:52:30;;;;;;;6.57;2.03;;;;;;;;;;5075543;28;20073;-78
2022/01/20 00:55:00;;;;;;;4.13;2.13;;;;;;;;;;5052774;28;20121;-77
2022/01/20 00:57:55;;;;;;;6.03;2.25;;;;;;;;;;5075928;28;20044;-77
2022/01/20 01:00:26;;;;;;;4.28;2.20;;;;;;;;;;5049671;28;20048;-77
2022/01/20 01:02:57;;;;;;;4.57;2.33;;;;;;;;;;5067417;28;20037;-77
2022/01/20 01:05:27;;;;;;;4.30;1.38;;;;;;;;;;5069230;28;20044;-78
2022/01/20 01:07:57;;;;;;;2.65;1.30;;;;;;;;;;5086491;28;20105;-78
2022/01/20 01:10:27;;;;;;;6.43;2.47;;;;;;;;;;5050937;28;20049;-78
2022/01/20 01:13:01;;;;;;;5.20;2.28;;;;;;;;;;5084663;28;20040;-78
2022/01/20 01:15:37;;;;;;;5.17;2.20;;;;;;;;;;5070553;28;20032;-78
2022/01/20 01:21:14;;;;;;;5.25;2.17;;;;;;;;;;5072058;28;20059;-77
2022/01/20 01:23:45;;;;;;;3.88;1.80;;;;;;;;;;5073875;28;20547;-77
2022/01/20 01:26:16;;;;;;;5.80;2.60;;;;;;;;;;5048157;28;20048;-77
2022/01/20 01:28:49;;;;;;;5.53;1.90;;;;;;;;;;5052484;28;20040;-77
2022/01/20 01:31:36;;;;;;;3.65;1.80;;;;;;;;;;5067513;28;20056;-77
2022/01/20 01:34:08;;;;;;;3.45;1.30;;;;;;;;;;5073034;28;20108;-77
2022/01/20 01:36:57;;;;;;;3.03;1.85;;;;;;;;;;5061294;28;20398;-77
2022/01/20 01:39:26;;;;;;;4.18;2.05;;;;;;;;;;5037956;28;20044;-77
2022/01/20 01:41:58;;;;;;;4.07;1.93;;;;;;;;;;5050050;28;20053;-77
2022/01/20 01:44:29;;;;;;;3.85;1.58;;;;;;;;;;5051730;28;20054;-77
2022/01/20 01:47:02;;;;;;;3.58;1.58;;;;;;;;;;5056958;28;20507;-78
2022/01/20 01:49:31;;;;;;;2.95;1.13;;;;;;;;;;5067858;28;20432;-77
2022/01/20 01:52:02;;;;;;;2.53;1.00;;;;;;;;;;5054816;28;20109;-77
2022/01/20 01:54:32;;;;;;;3.97;1.13;;;;;;;;;;5073330;28;20045;-77
2022/01/20 01:57:06;;;;;;;4.70;1.20;;;;;;;;;;5074117;28;20042;-77
2022/01/20 02:00:05;;;;;;;2.92;0.93;;;;;;;;;;5066014;28;20048;-79
2022/01/20 02:02:47;;;;;;;4.53;1.95;;;;;;;;;;5072185;28;20047;-77
2022/01/20 02:05:23;;;;;;;3.95;1.60;;;;;;;;;;5073536;28;20045;-77
2022/01/20 02:08:33;;;;;;;2.90;1.53;;;;;;;;;;5083918;28;20049;-77
2022/01/20 02:19:33;;;;;;;4.38;1.70;;;;;;;;;;5074132;28;20048;-77
2022/01/20 02:22:30;;;;;;;5.03;1.30;;;;;;;;;;5088385;28;20036;-77
2022/01/20 02:25:23;;;;;;;4.72;1.73;;;;;;;;;;5064213;28;20040;-77
2022/01/20 02:27:52;;;;;;;3.30;1.00;;;;;;;;;;5077756;28;20082;-77
2022/01/20 02:30:23;;;;;;;4.28;1.70;;;;;;;;;;5072304;28;20387;-77
2022/01/20 02:32:54;;;;;;;5.07;1.65;;;;;;;;;;5073504;28;20043;-77
2022/01/20 02:35:26;;;;;;;4.57;2.73;;;;;;;;;;5077287;28;20127;-78
2022/01/20 02:38:09;;;;;;;4.20;1.30;;;;;;;;;;5087991;28;20044;-77
2022/01/20 02:46:14;;;;;;;3.58;1.63;;;;;;;;;;5074688;28;20501;-78
2022/01/20 02:48:43;;;;;;;6.73;2.07;;;;;;;;;;5087789;28;20062;-78
2022/01/20 02:51:13;;;;;;;5.22;2.60;;;;;;;;;;5075701;28;20054;-77
2022/01/20 02:53:44;;;;;;;3.28;1.73;;;;;;;;;;5074080;28;20042;-77
2022/01/20 02:56:12;;;;;;;6.80;2.28;;;;;;;;;;5087530;28;20498;-77
2022/01/20 02:58:45;;;;;;;6.03;2.10;;;;;;;;;;5094231;28;20040;-77
2022/01/20 03:04:10;;;;;;;5.53;2.33;;;;;;;;;;5095717;28;20051;-77
2022/01/20 03:06:40;;;;;;;3.22;1.35;;;;;;;;;;5086623;28;20052;-77
2022/01/20 03:09:10;;;;;;;3.53;1.42;;;;;;;;;;5089523;28;20086;-77
2022/01/20 03:11:39;;;;;;;3.20;1.35;;;;;;;;;;5088510;28;20048;-78
2022/01/20 03:14:09;;;;;;;4.40;1.60;;;;;;;;;;5091989;28;20045;-77
2022/01/20 03:16:39;;;;;;;3.38;1.88;;;;;;;;;;5085335;28;20515;-78
2022/01/20 03:19:08;;;;;;;3.10;1.30;;;;;;;;;;5088677;28;20060;-78
2022/01/20 03:21:37;;;;;;;3.30;1.35;;;;;;;;;;5074451;28;20101;-78
2022/01/20 03:24:07;;;;;;;3.05;1.38;;;;;;;;;;5090528;28;20508;-78
2022/01/20 03:26:40;;;;;;;4.60;2.30;;;;;;;;;;5069190;28;20029;-78
2022/01/20 03:29:10;;;;;;;3.20;1.35;;;;;;;;;;5085636;28;20038;-78
2022/01/20 03:31:40;;;;;;;3.63;1.50;;;;;;;;;;5088380;28;20046;-78
2022/01/20 03:34:09;;;;;;;3.42;1.52;;;;;;;;;;5055924;28;20051;-78
2022/01/20 03:36:43;;;;;;;2.83;1.17;;;;;;;;;;5076215;28;20058;-78
2022/01/20 03:39:18;;;;;;;3.87;1.73;;;;;;;;;;5075570;28;20055;-78
2022/01/20 03:41:48;;;;;;;2.28;1.00;;;;;;;;;;5093542;28;20284;-78
2022/01/20 03:44:24;;;;;;;3.55;1.75;;;;;;;;;;5074929;28;20393;-78
2022/01/20 03:46:54;;;;;;;4.60;1.75;;;;;;;;;;5065485;28;20063;-77
2022/01/20 03:49:28;;;;;;;3.63;1.67;;;;;;;;;;5102501;28;20416;-77
2022/01/20 03:51:58;;;;;;;3.23;1.40;;;;;;;;;;5104845;28;20044;-77
2022/01/20 03:54:30;;;;;;;4.30;1.52;;;;;;;;;;5089319;28;20056;-77
2022/01/20 03:57:43;;;;;;;3.63;1.08;;;;;;;;;;5103376;28;20489;-77
2022/01/20 04:00:44;;;;;;;2.38;1.33;;;;;;;;;;5090022;28;20051;-77
2022/01/20 04:03:24;;;;;;;3.42;1.40;;;;;;;;;;5111692;28;20058;-78
2022/01/20 04:05:58;;;;;;;2.50;0.93;;;;;;;;;;5077449;28;20052;-77
2022/01/20 04:08:41;;;;;;;3.90;1.80;;;;;;;;;;5092777;28;20400;-78
2022/01/20 04:11:36;;;;;;;3.85;1.58;;;;;;;;;;5106414;28;20438;-77
2022/01/20 04:14:06;;;;;;;3.45;1.35;;;;;;;;;;5092671;28;20043;-78
2022/01/20 04:16:50;;;;;;;4.47;1.35;;;;;;;;;;5100704;28;20043;-78
2022/01/20 04:19:20;;;;;;;2.87;1.60;;;;;;;;;;5090044;28;20095;-78
2022/01/20 04:22:14;;;;;;;4.50;1.77;;;;;;;;;;5075461;28;20051;-78
2022/01/20 04:24:49;;;;;;;3.80;2.15;;;;;;;;;;5085698;28;20039;-78
2022/01/20 04:27:18;;;;;;;3.55;1.80;;;;;;;;;;5077406;28;20423;-77
2022/01/20 04:29:47;;;;;;;3.15;1.25;;;;;;;;;;5093053;28;20043;-78
2022/01/20 04:32:17;;;;;;;3.03;1.00;;;;;;;;;;5071234;28;20047;-78
2022/01/20 04:34:49;;;;;;;3.25;1.38;;;;;;;;;;5073229;28;20089;-77
2022/01/20 04:37:20;;;;;;;3.22;2.03;;;;;;;;;;5058802;28;20842;-78
2022/01/20 04:39:51;;;;;;;5.55;2.13;;;;;;;;;;5074358;28;20041;-77
2022/01/20 04:42:22;;;;;;;3.63;1.55;;;;;;;;;;5076213;28;20089;-78
2022/01/20 04:44:56;;;;;;;4.10;1.80;;;;;;;;;;5072891;28;20043;-77
2022/01/20 04:47:35;;;;;;;8.65;1.60;;;;;;;;;;5073566;28;20044;-78
2022/01/20 04:58:26;;;;;;;3.43;1.43;;;;;;;;;;5089269;28;20036;-78
2022/01/20 05:00:55;;;;;;;3.03;1.60;;;;;;;;;;5090234;28;20485;-77
2022/01/20 05:03:36;;;;;;;5.30;2.33;;;;;;;;;;5099862;28;20051;-77
2022/01/20 05:06:17;;;;;;;7.72;1.95;;;;;;;;;;5106204;28;20039;-79
2022/01/20 05:08:48;;;;;;;4.25;2.05;;;;;;;;;;5086889;27;20039;-77
2022/01/20 05:11:46;;;;;;;5.33;1.97;;;;;;;;;;5093323;28;20035;-78
2022/01/20 05:14:16;;;;;;;2.78;1.15;;;;;;;;;;5105140;27;20398;-80
2022/01/20 05:16:46;;;;;;;4.28;1.85;;;;;;;;;;5073488;27;20094;-80
2022/01/20 05:19:16;;;;;;;3.67;1.85;;;;;;;;;;5108662;28;20056;-79
2022/01/20 05:21:46;;;;;;;3.65;1.15;;;;;;;;;;5091811;28;20489;-76
2022/01/20 05:24:24;;;;;;;3.63;1.30;;;;;;;;;;5096088;28;20040;-80
2022/01/20 05:26:59;;;;;;;4.38;2.35;;;;;;;;;;5109161;28;20048;-80
2022/01/20 05:29:31;;;;;;;8.38;2.13;;;;;;;;;;5076553;28;20073;-76
2022/01/20 05:32:02;;;;;;;7.03;1.58;;;;;;;;;;5101358;28;20489;-75
2022/01/20 05:34:36;;;;;;;4.53;1.50;;;;;;;;;;5095466;28;20040;-78
2022/01/20 05:37:07;;;;;;;4.27;1.83;;;;;;;;;;5108360;27;20035;-79
2022/01/20 05:39:36;;;;;;;6.72;1.98;;;;;;;;;;5072097;28;20032;-78
2022/01/20 05:42:07;;;;;;;6.10;2.55;;;;;;;;;;5109606;28;20047;-80
2022/01/20 05:44:50;;;;;;;3.03;1.60;;;;;;;;;;5096369;28;20036;-80
2022/01/20 05:47:27;;;;;;;3.92;1.70;;;;;;;;;;5102257;28;20048;-79
2022/01/20 05:50:13;;;;;;;3.47;1.50;;;;;;;;;;5116559;28;20047;-73
2022/01/20 05:52:44;;;;;;;3.92;1.13;;;;;;;;;;5103540;27;20435;-75
2022/01/20 05:55:16;;;;;;;4.57;2.15;;;;;;;;;;5099374;28;20064;-75
2022/01/20 06:00:38;;;;;;;3.35;1.40;;;;;;;;;;5086503;28;20051;-76
2022/01/20 06:05:57;;;;;;;4.13;1.52;;;;;;;;;;5085394;28;20052;-78
2022/01/20 06:08:28;;;;;;;8.48;2.08;;;;;;;;;;5086313;28;20044;-76
2022/01/20 06:10:57;;;;;;;4.55;1.35;;;;;;;;;;5078282;28;20048;-77
2022/01/20 06:13:28;;;;;;;3.42;1.88;;;;;;;;;;5097085;28;20816;-78
2022/01/20 06:18:52;;;;;;;4.10;1.60;;;;;;;;;;5118300;22;20110;-79
2022/01/20 06:21:24;;;;;;;4.55;1.70;;;;;;;;;;5035116;28;20041;-77
2022/01/20 06:23:53;;;;;;;5.03;2.65;;;;;;;;;;5041191;28;20045;-77
2022/01/20 06:26:22;;;;;;;8.98;1.83;;;;;;;;;;5042846;28;20080;-77
2022/01/20 06:28:52;;;;;;;7.23;2.13;;;;;;;;;;5029148;28;20045;-76
2022/01/20 06:31:21;;;;;;;4.00;1.98;;;;;;;;;;5011017;28;20053;-76
2022/01/20 06:33:50;;;;;;;4.80;1.48;;;;;;;;;;5026740;28;20077;-77
2022/01/20 06:36:19;;;;;;;6.68;2.30;;;;;;;;;;5013521;28;20056;-76
2022/01/20 06:38:50;;;;;;;4.55;1.73;;;;;;;;;;5038408;28;20107;-77
2022/01/20 06:41:18;;;;;;;3.37;1.43;;;;;;;;;;5008440;28;20061;-77
2022/01/20 06:43:47;;;;;;;4.82;1.75;;;;;;;;;;5035206;28;20042;-76
2022/01/20 06:46:17;;;;;;;4.07;1.52;;;;;;;;;;5001198;28;20088;-76
2022/01/20 06:49:10;;;;;;;5.75;1.40;;;;;;;;;;5004200;28;20062;-76
2022/01/20 06:52:06;;;;;;;3.75;1.40;;;;;;;;;;5022319;28;20060;-76
2022/01/20 06:54:38;;;;;;;2.83;1.80;;;;;;;;;;5025911;28;20046;-76
2022/01/20 07:00:36;;;;;;;5.30;1.77;;;;;;;;;;5002456;28;20058;-76
2022/01/20 07:03:06;;;;;;;4.68;1.48;;;;;;;;;;5022976;28;20488;-77
2022/01/20 07:05:35;;;;;;;4.53;1.90;;;;;;;;;;5036524;28;20057;-76
2022/01/20 07:08:05;;;;;;;4.40;1.63;;;;;;;;;;5040133;28;20484;-77
2022/01/20 07:10:41;;;;;;;3.60;1.73;;;;;;;;;;5039614;28;20515;-75
2022/01/20 07:13:10;;;;;;;4.10;1.77;;;;;;;;;;5036965;28;20446;-76
2022/01/20 07:15:40;;;;;;;4.07;1.45;;;;;;;;;;5027551;28;20061;-77
2022/01/20 07:18:10;;;;;;;4.40;2.00;;;;;;;;;;5022794;28;20061;-76
2022/01/20 07:20:39;;;;;;;8.07;2.20;;;;;;;;;;5019929;28;20064;-76
2022/01/20 07:23:18;;;;;;;6.53;1.85;;;;;;;;;;5014330;28;20086;-76
2022/01/20 07:25:57;;;;;;;4.45;1.42;;;;;;;;;;5016131;28;20047;-76
2022/01/20 07:28:26;;;;;;;4.47;2.00;;;;;;;;;;5052463;28;20136;-77
2022/01/20 07:30:55;;;;;;;4.80;1.83;;;;;;;;;;5029824;28;20516;-76
2022/01/20 07:33:26;;;;;;;3.43;1.50;;;;;;;;;;5045649;28;20090;-77
2022/01/20 07:35:58;;;;;;;3.38;1.58;;;;;;;;;;5014596;28;20045;-76
2022/01/20 07:38:35;;;;;;;5.60;2.17;;;;;;;;;;5029804;28;20037;-77
2022/01/20 07:41:08;;;;;;;5.00;1.80;;;;;;;;;;4997691;28;20060;-76
2022/01/20 07:43:37;;;;;;;4.50;2.33;;;;;;;;;;5003568;28;20046;-76
2022/01/20 07:46:27;;;;;;;7.27;0.90;;;;;;;;;;5013209;28;20091;-76
2022/01/20 07:49:05;;;;;;;6.22;2.80;;;;;;;;;;5052205;28;20418;-76
2022/01/20 07:51:35;;;;;;;6.65;2.22;;;;;;;;;;5052441;28;20048;-76
2022/01/20 07:54:06;;;;;;;7.47;1.85;;;;;;;;;;5052539;28;20055;-77
2022/01/20 07:56:36;;;;;;;3.38;1.58;;;;;;;;;;5051891;28;20044;-76
2022/01/20 07:59:06;;;;;;;6.93;2.50;;;;;;;;;;5052282;28;20132;-76
2022/01/20 08:01:39;;;;;;;3.05;1.40;;;;;;;;;;5044248;28;20487;-76
2022/01/20 08:04:09;;;;;;;4.35;1.88;;;;;;;;;;5042216;28;20103;-76
2022/01/20 08:06:40;;;;;;;10.48;1.90;;;;;;;;;;5038747;28;20045;-76
2022/01/20 08:09:15;;;;;;;4.25;2.22;;;;;;;;;;5034776;28;20053;-77
2022/01/20 08:11:58;;;;;;;5.07;2.07;;;;;;;;;;5018832;28;20099;-77
2022/01/20 08:14:41;;;;;;;4.65;1.52;;;;;;;;;;5033540;28;20045;-76
2022/01/20 08:17:14;;;;;;;8.35;2.22;;;;;;;;;;5012744;28;20132;-77
2022/01/20 08:19:48;;;;;;;5.05;1.42;;;;;;;;;;5029563;28;20053;-77
2022/01/20 08:22:17;;;;;;;5.25;2.30;;;;;;;;;;5030164;28;20132;-77
2022/01/20 08:25:04;;;;;;;3.43;1.53;;;;;;;;;;5044679;28;20042;-77
2022/01/20 08:30:29;;;;;;;2.45;1.17;;;;;;;;;;5041663;28;20824;-77
2022/01/20 08:33:00;;;;;;;6.68;1.73;;;;;;;;;;5011059;28;20046;-77
2022/01/20 08:35:39;;;;;;;4.13;1.58;;;;;;;;;;5044152;28;20046;-77
2022/01/20 08:38:14;;;;;;;11.43;1.70;;;;;;;;;;5011557;28;20050;-77
2022/01/20 08:40:43;;;;;;;3.85;1.13;;;;;;;;;;5029861;28;20068;-77
2022/01/20 08:43:14;;;;;;;6.68;1.55;;;;;;;;;;5045431;28;20108;-77
2022/01/20 08:45:46;;;;;;;1.73;0.55;;;;;;;;;;5041703;28;20059;-77
2022/01/20 08:48:16;;;;;;;4.15;1.52;;;;;;;;;;5045849;28;20046;-77
2022/01/20 08:51:10;;;;;;;4.53;1.20;;;;;;;;;;5000029;28;20140;-78
2022/01/20 08:53:51;;;;;;;4.60;1.27;;;;;;;;;;5045159;28;20049;-77
2022/01/20 08:56:26;;;;;;;4.85;1.83;;;;;;;;;;5013867;28;20073;-77
2022/01/20 08:58:57;;;;;;;2.58;1.00;;;;;;;;;;5030604;28;20451;-76
2022/01/20 09:01:26;;;;;;;7.22;1.15;;;;;;;;;;5037611;28;20117;-79
2022/01/20 09:03:56;;;;;;;5.60;1.07;;;;;;;;;;5045080;28;20053;-76
2022/01/20 09:06:25;;;;;;;7.57;1.52;;;;;;;;;;5015266;28;20552;-76
2022/01/20 09:09:04;;;;;;;3.53;0.70;;;;;;;;;;5009822;28;20412;-79
2022/01/20 09:11:49;;;;;;;9.18;2.47;;;;;;;;;;5020281;28;20096;-76
2022/01/20 09:17:07;;;;;;;6.33;1.37;;;;;;;;;;5020761;28;20057;-77
2022/01/20 09:19:42;;;;;;;3.80;1.13;;;;;;;;;;5026140;28;20086;-76
2022/01/20 09:22:12;;;;;;;5.90;1.70;;;;;;;;;;5011877;28;20046;-76
2022/01/20 09:24:42;;;;;;;3.65;1.25;;;;;;;;;;5013250;28;20084;-78
2022/01/20 09:27:11;;;;;;;4.22;1.58;;;;;;;;;;5024629;28;20085;-77
2022/01/20 09:29:41;;;;;;;3.30;1.43;;;;;;;;;;5044181;28;20507;-77
2022/01/20 09:32:25;;;;;;;6.07;1.10;;;;;;;;;;5027423;28;20104;-77
2022/01/20 09:34:56;;;;;;;3.83;0.98;;;;;;;;;;5026610;28;20056;-77
2022/01/20 09:37:25;;;;;;;3.85;1.02;;;;;;;;;;5013174;28;20057;-76
2022/01/20 09:39:54;;;;;;;1.80;1.08;;;;;;;;;;5028452;28;20493;-78
2022/01/20 09:42:35;;;;;;;2.90;0.93;;;;;;;;;;5014736;28;20408;-77
2022/01/20 09:45:06;;;;;;;5.63;1.08;;;;;;;;;;5009962;28;20068;-75
2022/01/20 09:47:37;;;;;;;6.82;1.27;;;;;;;;;;5028325;28;20519;-77
2022/01/20 09:50:14;;;;;;;5.88;1.27;;;;;;;;;;5015369;28;20060;-78
2022/01/20 09:53:07;;;;;;;3.08;0.93;;;;;;;;;;4999037;28;20056;-76
2022/01/20 09:55:52;;;;;;;4.47;0.90;;;;;;;;;;5029871;28;20045;-77
2022/01/20 09:58:21;;;;;;;2.85;0.70;;;;;;;;;;5011920;28;20088;-76
2022/01/20 10:00:58;;;;;;;2.50;0.55;;;;;;;;;;5023416;28;20053;-77
2022/01/20 10:03:30;;;;;;;2.17;0.88;;;;;;;;;;5006961;28;20077;-77
2022/01/20 10:06:01;;;;;;;3.03;0.68;;;;;;;;;;5024307;28;20484;-77
2022/01/20 10:08:46;;;;;;;4.20;1.20;;;;;;;;;;5013811;28;20034;-77
2022/01/20 10:11:53;;;;;;;1.98;1.00;;;;;;;;;;5022251;28;20070;-76
2022/01/20 10:14:58;;;;;;;3.35;1.08;;;;;;;;;;5017361;28;20219;-78
2022/01/20 10:20:53;;;;;;;3.63;1.20;;;;;;;;;;5024594;28;20451;-76
2022/01/20 10:23:42;;;;;;;1.57;0.57;;;;;;;;;;5007628;28;20046;-76
2022/01/20 10:26:51;;;;;;;2.55;0.80;;;;;;;;;;5005167;28;20041;-76
2022/01/20 10:29:20;;;;;;;1.90;0.60;;;;;;;;;;5024508;28;20050;-76
2022/01/20 10:32:13;;;;;;;4.15;1.00;;;;;;;;;;5037741;28;20128;-77
2022/01/20 10:34:43;;;;;;;2.38;0.55;;;;;;;;;;5039679;28;20424;-77
2022/01/20 10:37:26;;;;;;;2.63;1.03;;;;;;;;;;5038263;28;20050;-77
2022/01/20 10:40:08;;;;;;;2.22;0.57;;;;;;;;;;5026477;28;20042;-77
2022/01/20 10:42:40;;;;;;;3.40;1.20;;;;;;;;;;5038168;28;20391;-76
2022/01/20 10:45:10;;;;;;;4.20;1.13;;;;;;;;;;5005559;28;20058;-75
2022/01/20 10:47:39;;;;;;;1.70;0.60;;;;;;;;;;5039046;28;20057;-77
2022/01/20 10:50:13;;;;;;;3.27;1.07;;;;;;;;;;5039393;28;20100;-76
2022/01/20 10:52:54;;;;;;;0.52;0.10;;;;;;;;;;5025758;28;20051;-76
2022/01/20 10:55:27;;;;;;;1.23;0.30;;;;;;;;;;5009704;28;20526;-76
2022/01/20 10:58:10;;;;;;;1.20;0.60;;;;;;;;;;5024288;28;20042;-75
2022/01/20 11:00:42;;;;;;;1.90;0.38;;;;;;;;;;5040886;28;20428;-76
2022/01/20 11:03:35;;;;;;;2.03;0.30;;;;;;;;;;5002804;28;20056;-77
2022/01/20 11:06:09;;;;;;;1.40;0.30;;;;;;;;;;5019186;28;20052;-78
2022/01/20 11:08:44;;;;;;;0.63;0.20;;;;;;;;;;5018290;28;20049;-78
2022/01/20 11:11:17;;;;;;;1.35;0.25;;;;;;;;;;5043911;28;20439;-76
2022/01/20 11:14:16;;;;;;;2.60;0.20;;;;;;;;;;5027887;28;20061;-76
2022/01/20 11:16:46;;;;;;;0.67;0.23;;;;;;;;;;5022938;28;20057;-76
2022/01/20 11:19:17;;;;;;;1.88;0.32;;;;;;;;;;5047311;28;20408;-76
2022/01/20 11:21:48;;;;;;;0.68;0.28;;;;;;;;;;5012914;28;20056;-76
2022/01/20 11:24:20;;;;;;;2.97;0.17;;;;;;;;;;5046314;28;20048;-76
2022/01/20 11:27:06;;;;;;;3.30;0.40;;;;;;;;;;5044298;28;20042;-75
2022/01/20 11:30:18;;;;;;;8.00;0.40;;;;;;;;;;5022895;28;20053;-75
2022/01/20 11:33:02;;;;;;;0.88;0.32;;;;;;;;;;5041976;28;20148;-76
2022/01/20 11:38:44;;;;;;;1.30;0.47;;;;;;;;;;5057280;28;20052;-76
2022/01/20 11:41:16;;;;;;;0.45;0.10;;;;;;;;;;5055301;28;20049;-76
2022/01/20 11:43:47;;;;;;;0.47;0.10;;;;;;;;;;5061188;28;20044;-76
2022/01/20 11:46:16;;;;;;;4.40;0.50;;;;;;;;;;5050390;28;20053;-76
2022/01/20 11:48:54;;;;;;;1.45;0.22;;;;;;;;;;5055675;28;20043;-76
2022/01/20 11:51:23;;;;;;;6.25;0.35;;;;;;;;;;5052883;28;20041;-76
2022/01/20 11:54:12;;;;;;;1.35;0.47;;;;;;;;;;5059160;28;20045;-76
2022/01/20 11:56:42;;;;;;;4.33;0.60;;;;;;;;;;5056808;28;20055;-76
2022/01/20 11:59:14;;;;;;;6.75;0.40;;;;;;;;;;5055509;28;20503;-76
2022/01/20 12:01:44;;;;;;;1.48;0.95;;;;;;;;;;5056977;28;20052;-77
2022/01/20 12:04:18;;;;;;;2.88;0.70;;;;;;;;;;5035890;28;20037;-76
2022/01/20 12:06:53;;;;;;;1.25;0.40;;;;;;;;;;5056171;28;20112;-76
2022/01/20 12:09:31;;;;;;;0.83;0.13;;;;;;;;;;5051642;28;20033;-76
2022/01/20 12:12:00;;;;;;;1.85;0.40;;;;;;;;;;5056984;28;20041;-76
2022/01/20 12:14:35;;;;;;;0.90;0.28;;;;;;;;;;5052110;28;20483;-76
2022/01/20 12:17:29;;;;;;;1.10;0.45;;;;;;;;;;5054338;28;20094;-76
2022/01/20 12:19:58;;;;;;;2.45;1.27;;;;;;;;;;5056454;28;20396;-76
2022/01/20 12:22:29;;;;;;;2.20;0.40;;;;;;;;;;5035092;28;20042;-76
2022/01/20 12:25:00;;;;;;;1.88;0.35;;;;;;;;;;5043230;28;20060;-76
2022/01/20 12:27:30;;;;;;;1.67;0.20;;;;;;;;;;5049805;28;20051;-75
2022/01/20 12:29:59;;;;;;;2.25;0.60;;;;;;;;;;5061121;28;20047;-76
2022/01/20 12:32:27;;;;;;;1.42;0.63;;;;;;;;;;5051976;28;20069;-76
2022/01/20 12:34:58;;;;;;;2.07;0.40;;;;;;;;;;5058972;28;20437;-76
2022/01/20 12:37:34;;;;;;;4.35;0.80;;;;;;;;;;5037096;28;20052;-76
2022/01/20 12:40:09;;;;;;;2.70;0.93;;;;;;;;;;5053553;28;20083;-76
2022/01/20 12:42:42;;;;;;;3.60;1.45;;;;;;;;;;5059877;28;20414;-76
2022/01/20 12:47:53;;;;;;;1.90;0.23;;;;;;;;;;5060183;28;20455;-78
2022/01/20 12:50:23;;;;;;;1.20;0.38;;;;;;;;;;5053878;28;20502;-78
2022/01/20 12:52:52;;;;;;;1.83;0.60;;;;;;;;;;5060451;28;20060;-77
2022/01/20 12:55:25;;;;;;;5.80;0.65;;;;;;;;;;5053453;28;20483;-77
2022/01/20 12:57:59;;;;;;;3.40;0.45;;;;;;;;;;5058762;28;20040;-78
2022/01/20 13:00:28;;;;;;;0.90;0.23;;;;;;;;;;5051706;28;20045;-76
2022/01/20 13:02:57;;;;;;;2.88;0.77;;;;;;;;;;5059284;28;20480;-76
2022/01/20 13:05:40;;;;;;;4.38;0.73;;;;;;;;;;5055848;28;20033;-76
2022/01/20 13:08:09;;;;;;;5.28;0.47;;;;;;;;;;5051307;28;20059;-76
2022/01/20 13:10:44;;;;;;;1.65;0.50;;;;;;;;;;5060576;28;20469;-76
2022/01/20 13:13:17;;;;;;;0.60;0.20;;;;;;;;;;5049768;28;20037;-78
2022/01/20 13:21:41;;;;;;;1.85;0.60;;;;;;;;;;5047192;28;20044;-76
2022/01/20 13:24:12;;;;;;;5.03;0.43;;;;;;;;;;5055945;28;20056;-77
2022/01/20 13:26:52;;;;;;;0.80;0.30;;;;;;;;;;5050447;28;20558;-76
2022/01/20 13:29:21;;;;;;;3.15;0.40;;;;;;;;;;5055995;28;20067;-77
2022/01/20 13:31:51;;;;;;;1.55;0.40;;;;;;;;;;5035231;28;20049;-76
2022/01/20 13:34:20;;;;;;;0.73;0.20;;;;;;;;;;5038069;28;20539;-77
2022/01/20 13:36:52;;;;;;;4.72;0.68;;;;;;;;;;5033625;28;20045;-76
2022/01/20 13:39:32;;;;;;;1.43;0.30;;;;;;;;;;5034092;28;20037;-77
2022/01/20 13:42:07;;;;;;;1.45;0.63;;;;;;;;;;5035343;28;20099;-76
2022/01/20 13:47:25;;;;;;;1.95;0.52;;;;;;;;;;5028038;28;20065;-77
2022/01/20 13:49:55;;;;;;;1.25;0.47;;;;;;;;;;5028554;28;20045;-76
2022/01/20 13:52:28;;;;;;;8.37;0.73;;;;;;;;;;5029873;28;20450;-77
2022/01/20 13:54:58;;;;;;;2.35;0.30;;;;;;;;;;5027243;28;20042;-76
2022/01/20 14:00:37;;;;;;;2.67;0.30;;;;;;;;;;5011909;28;20065;-76
2022/01/20 14:03:07;;;;;;;0.93;0.20;;;;;;;;;;5025000;28;20404;-77
2022/01/20 14:05:37;;;;;;;2.83;0.20;;;;;;;;;;5028497;28;20041;-77
2022/01/20 14:08:06;;;;;;;1.98;0.20;;;;;;;;;;5029736;28;20033;-76
2022/01/20 14:10:35;;;;;;;0.30;0.10;;;;;;;;;;5004861;28;20033;-77
2022/01/20 14:13:06;;;;;;;2.28;0.43;;;;;;;;;;5026912;28;20042;-76
2022/01/20 14:15:35;;;;;;;1.10;0.60;;;;;;;;;;5020693;28;20053;-76
2022/01/20 14:18:06;;;;;;;0.60;0.27;;;;;;;;;;5027716;28;20519;-77
2022/01/20 14:20:37;;;;;;;8.27;0.43;;;;;;;;;;5040474;28;20080;-76
2022/01/20 14:23:07;;;;;;;1.58;0.20;;;;;;;;;;5058000;28;20053;-77
2022/01/20 14:25:37;;;;;;;0.93;0.35;;;;;;;;;;5048466;28;20064;-76
2022/01/20 14:28:07;;;;;;;0.75;0.32;;;;;;;;;;5057575;28;20119;-76
2022/01/20 14:30:36;;;;;;;2.10;0.43;;;;;;;;;;5039373;28;20057;-77
2022/01/20 14:33:07;;;;;;;2.17;0.45;;;;;;;;;;5063117;28;20037;-76
2022/01/20 14:35:36;;;;;;;0.80;0.20;;;;;;;;;;5055064;28;20041;-77
2022/01/20 14:38:21;;;;;;;0.73;0.10;;;;;;;;;;5063145;28;20049;-76
2022/01/20 14:40:50;;;;;;;5.85;0.77;;;;;;;;;;5045762;28;20128;-76
2022/01/20 14:43:21;;;;;;;1.13;0.10;;;;;;;;;;5059667;28;20087;-77
2022/01/20 14:45:50;;;;;;;3.75;0.45;;;;;;;;;;5055826;28;20106;-76
2022/01/20 14:48:19;;;;;;;1.20;0.13;;;;;;;;;;5057235;28;20044;-77
2022/01/20 14:50:48;;;;;;;1.15;0.22;;;;;;;;;;5062303;28;20055;-77
2022/01/20 14:53:16;;;;;;;6.10;0.65;;;;;;;;;;5051479;28;20091;-76
2022/01/20 14:55:46;;;;;;;1.47;0.53;;;;;;;;;;5054865;28;20048;-76
2022/01/20 14:58:15;;;;;;;0.68;0.15;;;;;;;;;;5049660;28;20391;-77
2022/01/20 15:00:45;;;;;;;4.22;0.80;;;;;;;;;;5062961;28;22070;-77
2022/01/20 15:03:15;;;;;;;2.38;0.93;;;;;;;;;;5057222;28;20049;-77
2022/01/20 15:05:47;;;;;;;12.23;0.88;;;;;;;;;;5063934;28;20454;-77
2022/01/20 15:08:17;;;;;;;2.43;0.80;;;;;;;;;;5061297;28;20039;-77
2022/01/20 15:10:46;;;;;;;2.67;0.55;;;;;;;;;;5059762;28;20048;-77
2022/01/20 15:13:15;;;;;;;3.80;1.20;;;;;;;;;;5061487;28;20123;-77
2022/01/20 15:18:40;;;;;;;0.85;0.20;;;;;;;;;;5076588;28;20123;-77
2022/01/20 15:21:13;;;;;;;1.23;0.40;;;;;;;;;;5040850;28;20422;-77
2022/01/20 15:23:43;;;;;;;1.33;0.60;;;;;;;;;;5064302;28;20052;-77
2022/01/20 15:26:13;;;;;;;2.33;0.45;;;;;;;;;;5057315;28;20041;-76
2022/01/20 15:28:44;;;;;;;0.90;0.30;;;;;;;;;;5063383;28;20041;-78
2022/01/20 15:31:15;;;;;;;1.58;0.55;;;;;;;;;;5056320;28;20060;-77
2022/01/20 15:36:37;;;;;;;0.98;0.40;;;;;;;;;;5049907;28;20056;-77
2022/01/20 15:39:07;;;;;;;1.63;0.73;;;;;;;;;;5057497;28;20489;-76
2022/01/20 15:41:37;;;;;;;1.10;0.63;;;;;;;;;;5061198;28;20041;-76
2022/01/20 15:44:05;;;;;;;3.08;0.40;;;;;;;;;;5054756;28;20119;-77
2022/01/20 15:46:36;;;;;;;2.57;0.87;;;;;;;;;;5058086;28;20045;-77
2022/01/20 15:49:05;;;;;;;1.58;0.50;;;;;;;;;;5054436;28;20126;-76
2022/01/20 15:51:33;;;;;;;1.55;0.40;;;;;;;;;;5065351;28;20487;-76
2022/01/20 15:54:02;;;;;;;3.22;0.70;;;;;;;;;;5056653;28;20041;-76
2022/01/20 15:56:30;;;;;;;3.35;0.40;;;;;;;;;;5054794;28;20316;-77
2022/01/20 15:59:03;;;;;;;1.17;0.40;;;;;;;;;;5050413;28;20041;-76
2022/01/20 16:01:33;;;;;;;2.25;0.63;;;;;;;;;;5039703;28;20471;-77
2022/01/20 16:04:26;;;;;;;6.00;0.40;;;;;;;;;;5057064;28;20044;-76
2022/01/20 16:06:57;;;;;;;1.27;0.25;;;;;;;;;;5056874;28;20124;-76
2022/01/20 16:09:26;;;;;;;1.60;0.28;;;;;;;;;;5062933;28;20051;-76
2022/01/20 16:11:55;;;;;;;1.10;0.27;;;;;;;;;;5056308;28;20060;-76
2022/01/20 16:14:24;;;;;;;1.00;0.30;;;;;;;;;;5060234;28;20045;-76
2022/01/20 16:16:54;;;;;;;1.92;0.65;;;;;;;;;;5040167;28;20061;-76
2022/01/20 16:19:34;;;;;;;2.00;0.57;;;;;;;;;;5040296;28;20047;-77
2022/01/20 16:22:08;;;;;;;3.55;0.60;;;;;;;;;;5060512;28;20119;-76
2022/01/20 16:24:37;;;;;;;2.60;0.40;;;;;;;;;;5054103;28;20037;-77
2022/01/20 16:27:06;;;;;;;1.10;0.45;;;;;;;;;;5075002;28;20067;-76
2022/01/20 16:29:35;;;;;;;5.10;0.40;;;;;;;;;;5074490;28;20045;-74
2022/01/20 16:32:05;;;;;;;1.15;0.35;;;;;;;;;;5073310;28;20053;-77
2022/01/20 16:34:34;;;;;;;1.15;0.35;;;;;;;;;;5056987;28;20072;-77
2022/01/20 16:37:10;;;;;;;1.20;0.20;;;;;;;;;;5057331;28;20033;-78
2022/01/20 16:39:39;;;;;;;1.05;0.28;;;;;;;;;;5056477;28;20497;-76
2022/01/20 16:42:08;;;;;;;6.32;0.95;;;;;;;;;;5054716;28;20059;-76
2022/01/20 16:44:37;;;;;;;0.88;0.50;;;;;;;;;;5061399;28;20052;-79
2022/01/20 16:47:05;;;;;;;0.57;0.15;;;;;;;;;;5052950;28;20060;-76
2022/01/20 16:49:34;;;;;;;0.77;0.33;;;;;;;;;;5067529;28;20048;-77
2022/01/20 16:52:04;;;;;;;1.25;0.30;;;;;;;;;;5055129;28;20043;-77
2022/01/20 16:54:34;;;;;;;0.88;0.28;;;;;;;;;;5057644;28;20060;-77
2022/01/20 16:57:03;;;;;;;0.80;0.40;;;;;;;;;;5053415;28;20051;-77
2022/01/20 16:59:32;;;;;;;1.45;0.35;;;;;;;;;;5063878;28;20471;-77